createdAt,value
2023-04-15T00:00:57.473Z,6.43
2023-04-15T00:01:57.799Z,6.43
2023-04-15T00:02:57.553Z,6.40
2023-04-15T00:03:57.707Z,6.35
2023-04-15T00:04:57.351Z,6.32
2023-04-15T00:05:57.376Z,6.29
2023-04-15T00:06:57.427Z,6.22
2023-04-15T00:07:57.584Z,6.16
2023-04-15T00:08:57.419Z,6.13
2023-04-15T00:09:57.466Z,6.10
2023-04-15T00:10:57.359Z,6.04
2023-04-15T00:11:57.478Z,6.00
2023-04-15T00:12:57.389Z,5.98
2023-04-15T00:13:57.408Z,6.04
2023-04-15T00:14:57.255Z,6.01
2023-04-15T00:15:57.511Z,6.00
2023-04-15T00:16:57.684Z,5.93
2023-04-15T00:17:57.731Z,5.91
2023-04-15T00:18:57.486Z,5.91
2023-04-15T00:19:57.546Z,5.88
2023-04-15T00:20:57.428Z,5.83
2023-04-15T00:21:57.516Z,5.77
2023-04-15T00:22:57.514Z,5.81
2023-04-15T00:23:57.445Z,5.83
2023-04-15T00:24:57.561Z,5.92
2023-04-15T00:25:57.494Z,5.92
2023-04-15T00:26:57.428Z,5.93
2023-04-15T00:27:57.629Z,5.91
2023-04-15T00:28:57.732Z,5.89
2023-04-15T00:29:57.432Z,5.91
2023-04-15T00:30:57.280Z,5.86
2023-04-15T00:31:58.192Z,5.86
2023-04-15T00:32:57.476Z,5.83
2023-04-15T00:33:57.744Z,5.78
2023-04-15T00:34:58.007Z,5.74
2023-04-15T00:35:57.106Z,5.67
2023-04-15T00:36:57.114Z,5.60
2023-04-15T00:37:56.027Z,5.53
2023-04-15T00:38:57.532Z,5.50
2023-04-15T00:39:57.107Z,5.45
2023-04-15T00:40:57.115Z,5.40
2023-04-15T00:41:57.130Z,5.35
2023-04-15T00:42:56.979Z,5.31
2023-04-15T00:44:03.766Z,5.28
2023-04-15T00:45:03.864Z,5.23
2023-04-15T00:45:56.936Z,5.19
2023-04-15T00:46:56.863Z,5.14
2023-04-15T00:47:57.084Z,5.10
2023-04-15T00:48:56.890Z,5.09
2023-04-15T00:49:56.815Z,5.07
2023-04-15T00:50:56.799Z,5.07
2023-04-15T00:51:56.776Z,5.05
2023-04-15T00:52:56.929Z,5.04
2023-04-15T00:53:56.754Z,4.98
2023-04-15T00:54:56.730Z,4.95
2023-04-15T00:55:56.736Z,4.98
2023-04-15T00:56:56.840Z,5.01
2023-04-15T00:57:56.841Z,4.98
2023-04-15T00:58:56.677Z,4.98
2023-04-15T00:59:56.788Z,4.99
2023-04-15T01:00:56.714Z,4.96
2023-04-15T01:01:56.786Z,4.96
2023-04-15T01:02:56.839Z,4.95
2023-04-15T01:03:57.059Z,4.95
2023-04-15T01:04:56.809Z,4.95
2023-04-15T01:05:56.827Z,4.94
2023-04-15T01:06:56.862Z,4.91
2023-04-15T01:07:56.790Z,4.88
2023-04-15T01:08:56.707Z,4.83
2023-04-15T01:09:56.727Z,4.80
2023-04-15T01:10:56.677Z,4.79
2023-04-15T01:11:56.727Z,4.79
2023-04-15T01:12:56.847Z,4.83
2023-04-15T01:13:56.693Z,4.86
2023-04-15T01:14:56.779Z,4.88
2023-04-15T01:15:56.664Z,4.92
2023-04-15T01:16:56.694Z,4.95
2023-04-15T01:17:56.599Z,5.07
2023-04-15T01:18:56.631Z,5.10
2023-04-15T01:19:56.714Z,5.20
2023-04-15T01:20:56.619Z,5.30
2023-04-15T01:21:56.710Z,5.31
2023-04-15T01:22:56.626Z,5.34
2023-04-15T01:23:56.776Z,5.43
2023-04-15T01:24:56.710Z,5.48
2023-04-15T01:25:56.541Z,5.56
2023-04-15T01:26:56.736Z,5.68
2023-04-15T01:27:56.489Z,5.75
2023-04-15T01:28:56.768Z,5.82
2023-04-15T01:29:55.408Z,5.83
2023-04-15T01:30:56.335Z,5.86
2023-04-15T01:31:56.410Z,5.86
2023-04-15T01:32:56.393Z,5.89
2023-04-15T01:33:56.351Z,5.92
2023-04-15T01:34:56.334Z,5.95
2023-04-15T01:35:56.288Z,6.01
2023-04-15T01:36:56.301Z,6.03
2023-04-15T01:37:56.331Z,6.04
2023-04-15T01:38:56.300Z,6.09
2023-04-15T01:39:56.295Z,6.09
2023-04-15T01:40:56.255Z,6.09
2023-04-15T01:41:56.242Z,6.10
2023-04-15T01:42:56.297Z,6.14
2023-04-15T01:43:56.320Z,6.14
2023-04-15T01:44:56.261Z,6.21
2023-04-15T01:45:56.335Z,6.21
2023-04-15T01:46:56.274Z,6.26
2023-04-15T01:47:56.275Z,6.28
2023-04-15T01:48:56.156Z,6.26
2023-04-15T01:49:56.207Z,6.22
2023-04-15T01:50:56.170Z,6.19
2023-04-15T01:51:56.161Z,6.19
2023-04-15T01:52:56.134Z,6.16
2023-04-15T01:53:56.128Z,6.16
2023-04-15T01:54:56.119Z,6.16
2023-04-15T01:55:56.094Z,6.13
2023-04-15T01:57:05.130Z,6.10
2023-04-15T01:57:56.081Z,6.07
2023-04-15T01:58:56.074Z,6.07
2023-04-15T01:59:56.072Z,6.07
2023-04-15T02:00:56.158Z,6.03
2023-04-15T02:01:56.089Z,5.96
2023-04-15T02:02:56.062Z,5.98
2023-04-15T02:03:56.073Z,5.93
2023-04-15T02:04:56.012Z,5.92
2023-04-15T02:05:56.001Z,5.89
2023-04-15T02:06:55.999Z,5.85
2023-04-15T02:07:55.969Z,5.83
2023-04-15T02:08:55.968Z,5.78
2023-04-15T02:09:55.967Z,5.74
2023-04-15T02:10:55.924Z,5.70
2023-04-15T02:11:55.938Z,5.67
2023-04-15T02:12:55.937Z,5.64
2023-04-15T02:13:55.934Z,5.63
2023-04-15T02:14:56.024Z,5.59
2023-04-15T02:15:55.942Z,5.60
2023-04-15T02:16:55.912Z,5.66
2023-04-15T02:17:55.906Z,5.68
2023-04-15T02:18:55.799Z,5.68
2023-04-15T02:19:55.827Z,5.68
2023-04-15T02:20:55.852Z,5.68
2023-04-15T02:21:55.806Z,5.71
2023-04-15T02:22:55.851Z,5.70
2023-04-15T02:23:55.774Z,5.70
2023-04-15T02:24:55.807Z,5.64
2023-04-15T02:25:55.805Z,5.63
2023-04-15T02:26:55.975Z,5.57
2023-04-15T02:27:55.803Z,5.53
2023-04-15T02:28:55.756Z,5.50
2023-04-15T02:29:55.714Z,5.48
2023-04-15T02:30:55.745Z,5.45
2023-04-15T02:31:55.808Z,5.43
2023-04-15T02:32:55.798Z,5.48
2023-04-15T02:33:55.734Z,5.46
2023-04-15T02:34:55.719Z,5.41
2023-04-15T02:35:55.694Z,5.40
2023-04-15T02:36:55.683Z,5.48
2023-04-15T02:37:55.716Z,5.48
2023-04-15T02:38:55.664Z,5.55
2023-04-15T02:39:55.690Z,5.56
2023-04-15T02:40:55.650Z,5.60
2023-04-15T02:41:55.701Z,5.57
2023-04-15T02:42:55.627Z,5.56
2023-04-15T02:43:55.652Z,5.56
2023-04-15T02:44:55.643Z,5.52
2023-04-15T02:45:55.639Z,5.49
2023-04-15T02:46:55.599Z,5.48
2023-04-15T02:47:55.663Z,5.52
2023-04-15T02:48:55.552Z,5.50
2023-04-15T02:49:55.547Z,5.43
2023-04-15T02:50:55.573Z,5.43
2023-04-15T02:51:55.592Z,5.49
2023-04-15T02:52:55.572Z,5.49
2023-04-15T02:53:55.559Z,5.49
2023-04-15T02:54:55.525Z,5.48
2023-04-15T02:55:55.547Z,5.50
2023-04-15T02:56:55.586Z,5.55
2023-04-15T02:57:55.480Z,5.67
2023-04-15T02:58:55.494Z,5.73
2023-04-15T02:59:55.460Z,5.73
2023-04-15T03:00:55.449Z,5.74
2023-04-15T03:01:55.535Z,5.78
2023-04-15T03:02:55.472Z,5.77
2023-04-15T03:03:55.533Z,5.73
2023-04-15T03:04:55.473Z,5.64
2023-04-15T03:05:55.384Z,5.66
2023-04-15T03:06:55.379Z,5.64
2023-04-15T03:07:55.425Z,5.70
2023-04-15T03:08:55.339Z,5.70
2023-04-15T03:10:02.928Z,5.75
2023-04-15T03:10:55.342Z,5.73
2023-04-15T03:11:55.395Z,5.74
2023-04-15T03:12:55.326Z,5.77
2023-04-15T03:13:55.347Z,5.75
2023-04-15T03:14:55.321Z,5.73
2023-04-15T03:15:55.373Z,5.70
2023-04-15T03:16:55.271Z,5.71
2023-04-15T03:17:55.316Z,5.71
2023-04-15T03:18:55.276Z,5.73
2023-04-15T03:19:55.338Z,5.75
2023-04-15T03:20:55.242Z,5.75
2023-04-15T03:21:55.220Z,5.77
2023-04-15T03:22:55.261Z,5.70
2023-04-15T03:23:55.226Z,5.73
2023-04-15T03:24:55.194Z,5.70
2023-04-15T03:25:55.168Z,5.70
2023-04-15T03:26:55.207Z,5.66
2023-04-15T03:27:55.166Z,5.60
2023-04-15T03:28:55.158Z,5.57
2023-04-15T03:29:55.178Z,5.53
2023-04-15T03:30:55.153Z,5.50
2023-04-15T03:31:55.129Z,5.38
2023-04-15T03:32:55.181Z,5.31
2023-04-15T03:33:55.096Z,5.23
2023-04-15T03:34:55.135Z,5.20
2023-04-15T03:35:55.088Z,5.14
2023-04-15T03:36:55.150Z,5.13
2023-04-15T03:37:55.061Z,5.07
2023-04-15T03:38:55.059Z,5.04
2023-04-15T03:39:55.039Z,5.05
2023-04-15T03:40:55.039Z,5.05
2023-04-15T03:41:55.046Z,5.10
2023-04-15T03:42:55.027Z,5.05
2023-04-15T03:43:54.995Z,5.01
2023-04-15T03:44:55.012Z,5.02
2023-04-15T03:45:54.997Z,5.22
2023-04-15T03:46:55.015Z,5.34
2023-04-15T03:47:55.070Z,5.32
2023-04-15T03:48:54.955Z,5.35
2023-04-15T03:49:54.940Z,5.32
2023-04-15T03:50:54.940Z,5.25
2023-04-15T03:51:54.947Z,5.17
2023-04-15T03:52:54.954Z,5.07
2023-04-15T03:53:54.902Z,4.96
2023-04-15T03:54:54.908Z,4.88
2023-04-15T03:55:54.880Z,4.73
2023-04-15T03:56:54.932Z,4.64
2023-04-15T03:57:54.873Z,4.67
2023-04-15T03:58:54.873Z,4.58
2023-04-15T03:59:54.837Z,4.58
2023-04-15T04:00:54.881Z,4.55
2023-04-15T04:01:54.925Z,4.50
2023-04-15T04:02:54.958Z,4.46
2023-04-15T04:03:55.106Z,4.40
2023-04-15T04:04:54.818Z,4.34
2023-04-15T04:05:54.773Z,4.29
2023-04-15T04:06:54.745Z,4.24
2023-04-15T04:07:54.712Z,4.21
2023-04-15T04:08:54.782Z,4.15
2023-04-15T04:09:54.690Z,4.14
2023-04-15T04:10:54.724Z,4.14
2023-04-15T04:11:54.674Z,4.12
2023-04-15T04:12:54.685Z,4.10
2023-04-15T04:13:54.643Z,4.08
2023-04-15T04:14:54.987Z,4.15
2023-04-15T04:15:54.659Z,4.25
2023-04-15T04:16:54.717Z,4.26
2023-04-15T04:17:54.652Z,4.24
2023-04-15T04:18:54.615Z,4.16
2023-04-15T04:19:54.597Z,4.21
2023-04-15T04:20:54.594Z,4.25
2023-04-15T04:21:54.558Z,4.29
2023-04-15T04:23:02.146Z,4.50
2023-04-15T04:23:54.557Z,4.64
2023-04-15T04:24:54.551Z,4.69
2023-04-15T04:25:54.542Z,4.58
2023-04-15T04:26:54.533Z,4.61
2023-04-15T04:27:54.522Z,4.59
2023-04-15T04:28:54.526Z,4.61
2023-04-15T04:29:54.503Z,4.58
2023-04-15T04:30:54.498Z,4.59
2023-04-15T04:31:54.471Z,4.58
2023-04-15T04:32:54.522Z,4.61
2023-04-15T04:33:54.484Z,4.72
2023-04-15T04:34:54.476Z,4.73
2023-04-15T04:35:54.425Z,4.72
2023-04-15T04:36:54.452Z,4.62
2023-04-15T04:37:54.406Z,4.55
2023-04-15T04:38:54.415Z,4.50
2023-04-15T04:39:54.406Z,4.43
2023-04-15T04:40:54.399Z,4.50
2023-04-15T04:41:54.405Z,4.44
2023-04-15T04:42:54.377Z,4.52
2023-04-15T04:43:54.353Z,4.55
2023-04-15T04:44:54.370Z,4.50
2023-04-15T04:45:54.421Z,4.42
2023-04-15T04:46:54.327Z,4.36
2023-04-15T04:47:54.336Z,4.29
2023-04-15T04:48:54.340Z,4.21
2023-04-15T04:49:54.287Z,4.16
2023-04-15T04:50:54.295Z,4.10
2023-04-15T04:51:54.357Z,4.04
2023-04-15T04:52:54.267Z,4.03
2023-04-15T04:53:54.283Z,4.04
2023-04-15T04:54:54.264Z,4.01
2023-04-15T04:55:54.237Z,3.96
2023-04-15T04:56:54.280Z,3.92
2023-04-15T04:57:54.294Z,3.90
2023-04-15T04:58:54.193Z,3.89
2023-04-15T04:59:54.246Z,3.94
2023-04-15T05:00:54.288Z,3.96
2023-04-15T05:01:54.228Z,3.97
2023-04-15T05:02:54.263Z,3.94
2023-04-15T05:03:54.329Z,3.92
2023-04-15T05:04:54.184Z,3.89
2023-04-15T05:05:54.160Z,3.85
2023-04-15T05:06:54.127Z,3.82
2023-04-15T05:07:54.135Z,3.79
2023-04-15T05:08:54.129Z,3.80
2023-04-15T05:09:54.103Z,3.97
2023-04-15T05:10:54.081Z,4.21
2023-04-15T05:11:54.050Z,4.26
2023-04-15T05:12:54.162Z,4.26
2023-04-15T05:13:54.039Z,4.24
2023-04-15T05:14:54.081Z,4.29
2023-04-15T05:15:54.112Z,4.28
2023-04-15T05:16:54.034Z,4.24
2023-04-15T05:17:54.102Z,4.22
2023-04-15T05:18:54.046Z,4.22
2023-04-15T05:19:54.106Z,4.32
2023-04-15T05:20:54.028Z,4.43
2023-04-15T05:21:54.077Z,4.42
2023-04-15T05:22:54.080Z,4.42
2023-04-15T05:23:54.044Z,4.36
2023-04-15T05:24:53.954Z,4.32
2023-04-15T05:25:54.061Z,4.33
2023-04-15T05:26:53.931Z,4.43
2023-04-15T05:27:53.915Z,4.50
2023-04-15T05:28:53.903Z,4.59
2023-04-15T05:29:53.884Z,4.62
2023-04-15T05:30:53.881Z,4.75
2023-04-15T05:31:53.876Z,4.77
2023-04-15T05:32:53.904Z,4.86
2023-04-15T05:33:53.842Z,5.01
2023-04-15T05:34:53.855Z,5.07
2023-04-15T05:35:53.872Z,5.19
2023-04-15T05:36:53.813Z,5.23
2023-04-15T05:37:53.846Z,5.31
2023-04-15T05:38:53.793Z,5.37
2023-04-15T05:39:53.782Z,5.40
2023-04-15T05:40:53.782Z,5.48
2023-04-15T05:41:53.760Z,5.64
2023-04-15T05:42:53.763Z,5.68
2023-04-15T05:43:53.755Z,5.71
2023-04-15T05:44:53.785Z,5.77
2023-04-15T05:45:53.748Z,5.82
2023-04-15T05:46:53.709Z,5.82
2023-04-15T05:47:53.717Z,5.83
2023-04-15T05:48:54.736Z,5.85
2023-04-15T05:49:53.729Z,5.86
2023-04-15T05:50:53.705Z,5.95
2023-04-15T05:51:53.654Z,5.96
2023-04-15T05:52:53.673Z,5.93
2023-04-15T05:53:53.661Z,5.91
2023-04-15T05:54:53.652Z,5.92
2023-04-15T05:55:53.600Z,5.98
2023-04-15T05:56:53.622Z,6.03
2023-04-15T05:57:53.591Z,6.04
2023-04-15T05:58:53.902Z,6.09
2023-04-15T05:59:53.576Z,6.09
2023-04-15T06:00:53.613Z,6.21
2023-04-15T06:01:53.557Z,6.29
2023-04-15T06:02:53.558Z,6.32
2023-04-15T06:03:53.738Z,6.36
2023-04-15T06:04:53.662Z,6.35
2023-04-15T06:05:53.564Z,6.36
2023-04-15T06:06:53.529Z,6.28
2023-04-15T06:07:53.515Z,6.28
2023-04-15T06:08:53.567Z,6.21
2023-04-15T06:09:53.516Z,6.21
2023-04-15T06:10:53.455Z,6.21
2023-04-15T06:11:53.451Z,6.26
2023-04-15T06:12:53.476Z,6.32
2023-04-15T06:13:53.460Z,6.38
2023-04-15T06:14:53.433Z,6.44
2023-04-15T06:15:53.431Z,6.51
2023-04-15T06:16:53.407Z,6.59
2023-04-15T06:17:53.433Z,6.65
2023-04-15T06:18:53.372Z,6.66
2023-04-15T06:19:53.397Z,6.71
2023-04-15T06:20:53.362Z,6.80
2023-04-15T06:21:53.360Z,6.81
2023-04-15T06:22:53.341Z,6.90
2023-04-15T06:23:53.329Z,6.94
2023-04-15T06:24:53.375Z,6.97
2023-04-15T06:25:53.308Z,6.98
2023-04-15T06:26:53.300Z,6.94
2023-04-15T06:27:53.313Z,6.87
2023-04-15T06:28:53.285Z,6.91
2023-04-15T06:29:53.377Z,6.91
2023-04-15T06:30:53.272Z,6.89
2023-04-15T06:31:53.382Z,6.83
2023-04-15T06:32:53.338Z,6.83
2023-04-15T06:33:53.227Z,6.89
2023-04-15T06:34:53.230Z,6.91
2023-04-15T06:35:53.222Z,6.89
2023-04-15T06:36:53.196Z,6.95
2023-04-15T06:37:53.234Z,7.05
2023-04-15T06:38:53.176Z,7.02
2023-04-15T06:39:53.148Z,6.97
2023-04-15T06:40:53.161Z,7.07
2023-04-15T06:41:53.200Z,7.09
2023-04-15T06:42:53.163Z,7.12
2023-04-15T06:43:53.124Z,7.12
2023-04-15T06:44:53.157Z,7.13
2023-04-15T06:45:53.230Z,7.19
2023-04-15T06:46:53.101Z,7.27
2023-04-15T06:47:53.157Z,7.35
2023-04-15T06:48:53.101Z,7.35
2023-04-15T06:49:53.054Z,7.40
2023-04-15T06:50:53.206Z,7.37
2023-04-15T06:51:53.030Z,7.38
2023-04-15T06:52:53.057Z,7.35
2023-04-15T06:53:53.062Z,7.35
2023-04-15T06:54:53.017Z,7.26
2023-04-15T06:55:53.013Z,7.31
2023-04-15T06:56:53.026Z,7.27
2023-04-15T06:57:52.971Z,7.32
2023-04-15T06:58:52.977Z,7.22
2023-04-15T06:59:52.959Z,7.23
2023-04-15T07:00:52.967Z,7.23
2023-04-15T07:01:53.006Z,7.12
2023-04-15T07:02:52.964Z,7.15
2023-04-15T07:03:52.940Z,7.09
2023-04-15T07:04:52.940Z,7.09
2023-04-15T07:05:52.932Z,7.05
2023-04-15T07:06:52.931Z,7.13
2023-04-15T07:07:52.864Z,7.22
2023-04-15T07:08:52.899Z,7.24
2023-04-15T07:09:52.860Z,7.31
2023-04-15T07:10:52.831Z,7.31
2023-04-15T07:11:52.842Z,7.16
2023-04-15T07:12:52.868Z,7.12
2023-04-15T07:13:52.916Z,7.05
2023-04-15T07:14:52.800Z,7.04
2023-04-15T07:15:52.798Z,7.16
2023-04-15T07:16:52.879Z,7.24
2023-04-15T07:17:52.792Z,7.27
2023-04-15T07:18:52.799Z,7.32
2023-04-15T07:19:52.763Z,7.17
2023-04-15T07:20:52.735Z,7.05
2023-04-15T07:21:52.716Z,7.07
2023-04-15T07:22:52.716Z,7.13
2023-04-15T07:23:52.690Z,7.24
2023-04-15T07:24:52.709Z,7.31
2023-04-15T07:25:52.671Z,7.40
2023-04-15T07:26:52.664Z,7.47
2023-04-15T07:27:52.651Z,7.44
2023-04-15T07:28:52.723Z,7.47
2023-04-15T07:29:52.750Z,7.52
2023-04-15T07:30:52.802Z,7.38
2023-04-15T07:31:52.624Z,7.37
2023-04-15T07:32:53.552Z,7.41
2023-04-15T07:33:52.621Z,7.45
2023-04-15T07:34:52.605Z,7.50
2023-04-15T07:35:52.667Z,7.52
2023-04-15T07:36:52.645Z,7.55
2023-04-15T07:37:52.750Z,7.59
2023-04-15T07:38:52.549Z,7.72
2023-04-15T07:39:52.556Z,7.75
2023-04-15T07:40:52.510Z,7.77
2023-04-15T07:41:52.501Z,7.66
2023-04-15T07:42:53.463Z,7.75
2023-04-15T07:43:52.527Z,7.82
2023-04-15T07:44:52.679Z,7.74
2023-04-15T07:45:52.568Z,7.79
2023-04-15T07:46:52.602Z,7.84
2023-04-15T07:47:54.538Z,7.84
2023-04-15T07:48:53.367Z,7.90
2023-04-15T07:49:52.461Z,7.85
2023-04-15T07:50:52.498Z,7.77
2023-04-15T07:51:52.447Z,7.81
2023-04-15T07:52:52.941Z,7.87
2023-04-15T07:53:52.403Z,7.94
2023-04-15T07:54:52.457Z,7.99
2023-04-15T07:57:19.994Z,8.18
2023-04-15T07:58:20.968Z,8.11
2023-04-15T07:59:20.897Z,8.18
2023-04-15T08:02:40.523Z,8.21
2023-04-15T08:03:40.433Z,8.26
2023-04-15T08:06:06.441Z,8.26
2023-04-15T08:07:08.996Z,8.18
2023-04-15T08:08:07.476Z,8.14
2023-04-15T08:09:07.429Z,8.11
2023-04-15T08:10:07.400Z,8.18
2023-04-15T08:11:07.404Z,8.26
2023-04-15T08:12:07.369Z,8.18
2023-04-15T08:13:07.369Z,8.03
2023-04-15T08:15:16.544Z,8.04
2023-04-15T08:16:17.735Z,7.84
2023-04-15T08:18:14.464Z,7.72
2023-04-15T08:19:15.261Z,7.72
2023-04-15T08:20:24.212Z,7.67
2023-04-15T08:21:15.396Z,7.74
2023-04-15T08:22:17.981Z,7.82
2023-04-15T08:23:15.193Z,7.90
2023-04-15T08:24:15.731Z,7.87
2023-04-15T08:25:23.698Z,7.78
2023-04-15T08:26:15.249Z,7.82
2023-04-15T08:27:15.159Z,7.90
2023-04-15T08:28:15.134Z,7.99
2023-04-15T08:29:15.166Z,7.96
2023-04-15T08:30:15.179Z,7.93
2023-04-15T08:31:15.195Z,7.84
2023-04-15T08:32:15.106Z,7.85
2023-04-15T08:33:15.104Z,7.93
2023-04-15T08:34:15.930Z,7.97
2023-04-15T08:35:15.106Z,7.96
2023-04-15T08:36:15.109Z,7.94
2023-04-15T08:37:25.212Z,8.04
2023-04-15T08:38:15.119Z,8.10
2023-04-15T08:44:26.292Z,8.22
2023-04-15T08:46:55.151Z,8.17
2023-04-15T08:47:56.440Z,8.29
2023-04-15T08:51:55.322Z,8.17
2023-04-15T08:52:56.217Z,8.17
2023-04-15T08:53:56.184Z,8.29
2023-04-15T08:54:56.356Z,8.39
2023-04-15T08:55:56.219Z,8.51
2023-04-15T09:20:01.681Z,8.22
2023-04-15T09:21:02.870Z,8.26
2023-04-15T09:22:02.660Z,8.28
2023-04-15T09:23:03.006Z,8.33
2023-04-15T09:24:03.076Z,8.35
2023-04-15T09:25:16.499Z,8.32
2023-04-15T09:26:02.625Z,8.33
2023-04-15T09:27:02.610Z,8.47
2023-04-15T09:28:02.672Z,8.57
2023-04-15T09:29:02.798Z,8.72
2023-04-15T09:30:02.660Z,8.79
2023-04-15T09:31:02.597Z,8.79
2023-04-15T09:32:02.546Z,8.75
2023-04-15T09:33:02.666Z,8.78
2023-04-15T09:34:02.759Z,8.71
2023-04-15T09:35:02.800Z,8.69
2023-04-15T09:39:05.590Z,8.88
2023-04-15T09:40:06.553Z,8.91
2023-04-15T09:41:06.465Z,8.84
2023-04-15T09:43:50.041Z,8.90
2023-04-15T09:48:22.357Z,8.75
2023-04-15T09:54:18.787Z,8.84
2023-04-15T09:59:15.891Z,9.05
2023-04-15T10:01:41.271Z,9.21
2023-04-15T10:02:42.109Z,9.24
2023-04-15T10:03:51.547Z,9.24
2023-04-15T10:04:59.399Z,9.24
2023-04-15T10:05:43.097Z,9.18
2023-04-15T10:06:43.065Z,9.09
2023-04-15T10:09:21.931Z,8.93
2023-04-15T10:10:22.661Z,8.91
2023-04-15T10:11:22.632Z,8.91
2023-04-15T10:12:22.559Z,8.96
2023-04-15T10:13:22.527Z,8.94
2023-04-15T10:14:22.522Z,9.06
2023-04-15T10:15:22.487Z,9.16
2023-04-15T10:16:22.510Z,9.01
2023-04-15T10:17:22.612Z,8.90
2023-04-15T10:18:22.515Z,8.79
2023-04-15T10:19:22.459Z,8.79
2023-04-15T10:20:22.445Z,8.84
2023-04-15T10:21:24.033Z,8.73
2023-04-15T10:22:23.465Z,8.73
2023-04-15T10:23:28.989Z,8.78
2023-04-15T10:24:22.408Z,8.73
2023-04-15T10:25:22.418Z,8.75
2023-04-15T10:26:22.376Z,8.73
2023-04-15T10:27:22.661Z,8.71
2023-04-15T10:30:39.733Z,8.81
2023-04-15T10:31:40.653Z,8.86
2023-04-15T10:32:40.502Z,8.81
2023-04-15T10:33:40.432Z,8.81
2023-04-15T10:34:40.429Z,8.79
2023-04-15T10:35:40.434Z,8.81
2023-04-15T10:36:40.430Z,8.81
2023-04-15T10:37:40.457Z,8.81
2023-04-15T10:38:40.490Z,8.83
2023-04-15T10:39:40.494Z,8.84
2023-04-15T10:40:40.800Z,8.84
2023-04-15T10:41:40.371Z,8.83
2023-04-15T10:42:40.591Z,8.86
2023-04-15T10:45:41.667Z,8.88
2023-04-15T10:46:42.819Z,8.84
2023-04-15T10:47:42.645Z,8.81
2023-04-15T10:48:42.662Z,8.79
2023-04-15T10:51:10.006Z,8.94
2023-04-15T10:52:10.709Z,8.94
2023-04-15T10:53:10.782Z,8.94
2023-04-15T10:54:10.704Z,8.93
2023-04-15T10:55:10.835Z,8.94
2023-04-15T10:56:10.831Z,8.96
2023-04-15T10:57:10.641Z,8.94
2023-04-15T10:58:10.611Z,8.97
2023-04-15T10:59:10.604Z,8.97
2023-04-15T11:00:10.552Z,9.02
2023-04-15T11:01:10.599Z,9.09
2023-04-15T11:02:10.632Z,9.05
2023-04-15T11:03:10.751Z,9.04
2023-04-15T11:04:10.567Z,8.94
2023-04-15T11:05:10.690Z,8.99
2023-04-15T11:06:10.771Z,8.96
2023-04-15T11:07:10.596Z,9.02
2023-04-15T11:08:10.487Z,9.06
2023-04-15T11:09:10.693Z,9.21
2023-04-15T11:10:10.587Z,9.28
2023-04-15T11:11:10.587Z,9.32
2023-04-15T11:12:10.444Z,9.38
2023-04-15T11:13:10.671Z,9.42
2023-04-15T11:14:10.421Z,9.34
2023-04-15T11:15:10.418Z,9.28
2023-04-15T11:16:10.411Z,9.32
2023-04-15T11:17:10.423Z,9.39
2023-04-15T11:18:10.451Z,9.39
2023-04-15T11:19:10.426Z,9.49
2023-04-15T11:20:10.347Z,9.52
2023-04-15T11:21:10.359Z,9.63
2023-04-15T11:22:10.332Z,9.57
2023-04-15T11:23:15.061Z,9.53
2023-04-15T11:24:10.304Z,9.48
2023-04-15T11:25:10.324Z,9.48
2023-04-15T11:26:10.307Z,9.35
2023-04-15T11:27:10.327Z,9.30
2023-04-15T11:28:10.270Z,9.28
2023-04-15T11:29:10.302Z,9.32
2023-04-15T11:30:10.281Z,9.39
2023-04-15T11:31:10.603Z,9.32
2023-04-15T11:32:10.423Z,9.32
2023-04-15T11:33:10.254Z,9.25
2023-04-15T11:34:10.204Z,9.24
2023-04-15T11:35:10.232Z,9.24
2023-04-15T11:36:10.223Z,9.28
2023-04-15T11:37:10.184Z,9.25
2023-04-15T11:38:10.191Z,9.31
2023-04-15T11:39:10.488Z,9.32
2023-04-15T11:40:10.220Z,9.25
2023-04-15T11:41:10.150Z,9.25
2023-04-15T11:42:31.476Z,9.28
2023-04-15T11:43:11.119Z,9.31
2023-04-15T11:44:10.183Z,9.35
2023-04-15T11:45:10.133Z,9.42
2023-04-15T11:46:10.165Z,9.40
2023-04-15T11:47:10.112Z,9.50
2023-04-15T11:48:10.085Z,9.52
2023-04-15T11:50:34.855Z,9.63
2023-04-15T11:51:35.841Z,9.68
2023-04-15T11:52:35.870Z,9.68
2023-04-15T11:53:35.799Z,9.68
2023-04-15T11:54:35.838Z,9.73
2023-04-15T11:55:35.801Z,9.76
2023-04-15T11:56:35.776Z,9.76
2023-04-15T11:57:35.762Z,9.81
2023-04-15T11:58:35.804Z,9.81
2023-04-15T11:59:44.853Z,9.85
2023-04-15T12:00:35.797Z,9.82
2023-04-15T12:01:35.744Z,9.78
2023-04-15T12:02:35.837Z,9.63
2023-04-15T12:03:35.857Z,9.53
2023-04-15T12:04:35.831Z,9.46
2023-04-15T12:05:35.705Z,9.48
2023-04-15T12:06:35.706Z,9.53
2023-04-15T12:07:35.757Z,9.56
2023-04-15T12:08:35.646Z,9.48
2023-04-15T12:09:35.666Z,9.42
2023-04-15T12:10:35.630Z,9.43
2023-04-15T12:11:35.627Z,9.43
2023-04-15T12:12:35.655Z,9.46
2023-04-15T12:13:35.596Z,9.52
2023-04-15T12:14:35.594Z,9.56
2023-04-15T12:15:35.657Z,9.57
2023-04-15T12:16:37.224Z,9.60
2023-04-15T12:17:51.816Z,9.68
2023-04-15T12:18:44.071Z,9.57
2023-04-15T12:19:35.535Z,9.56
2023-04-15T12:20:35.516Z,9.60
2023-04-15T12:21:35.533Z,9.49
2023-04-15T12:22:35.530Z,9.35
2023-04-15T12:23:35.487Z,9.40
2023-04-15T12:24:35.471Z,9.48
2023-04-15T12:25:35.470Z,9.48
2023-04-15T12:26:35.442Z,9.56
2023-04-15T12:27:35.851Z,9.63
2023-04-15T12:28:35.414Z,9.64
2023-04-15T12:29:35.446Z,9.61
2023-04-15T12:30:35.470Z,9.57
2023-04-15T12:31:35.660Z,9.56
2023-04-15T12:32:35.459Z,9.50
2023-04-15T12:33:35.402Z,9.49
2023-04-15T12:34:35.377Z,9.52
2023-04-15T12:35:35.398Z,9.53
2023-04-15T12:36:35.346Z,9.53
2023-04-15T12:37:35.362Z,9.56
2023-04-15T12:38:35.323Z,9.70
2023-04-15T12:39:35.356Z,9.78
2023-04-15T12:40:35.321Z,9.78
2023-04-15T12:41:35.305Z,9.75
2023-04-15T12:42:35.288Z,9.73
2023-04-15T12:43:35.293Z,9.71
2023-04-15T12:44:35.299Z,9.61
2023-04-15T12:45:35.289Z,9.52
2023-04-15T12:46:35.340Z,9.50
2023-04-15T12:47:35.321Z,9.52
2023-04-15T12:48:35.242Z,9.53
2023-04-15T12:49:35.271Z,9.49
2023-04-15T12:50:35.241Z,9.43
2023-04-15T12:51:35.195Z,9.31
2023-04-15T12:52:35.170Z,9.25
2023-04-15T12:53:35.210Z,9.34
2023-04-15T12:54:35.149Z,9.28
2023-04-15T12:55:35.167Z,9.30
2023-04-15T12:56:35.256Z,9.27
2023-04-15T12:57:35.140Z,9.25
2023-04-15T12:58:35.169Z,9.21
2023-04-15T12:59:35.115Z,9.27
2023-04-15T13:00:35.109Z,9.28
2023-04-15T13:01:35.129Z,9.25
2023-04-15T13:02:35.365Z,9.25
2023-04-15T13:03:35.294Z,9.23
2023-04-15T13:04:35.117Z,9.21
2023-04-15T13:05:35.083Z,9.15
2023-04-15T13:06:35.051Z,9.15
2023-04-15T13:07:35.061Z,9.18
2023-04-15T13:08:36.954Z,9.16
2023-04-15T13:09:34.996Z,9.13
2023-04-15T13:10:35.017Z,9.16
2023-04-15T13:11:34.981Z,9.13
2023-04-15T13:12:34.950Z,9.13
2023-04-15T13:13:34.970Z,9.09
2023-04-15T13:14:34.948Z,9.06
2023-04-15T13:15:34.955Z,9.05
2023-04-15T13:16:34.977Z,9.02
2023-04-15T13:17:34.949Z,9.02
2023-04-15T13:18:35.577Z,8.99
2023-04-15T13:19:34.967Z,9.01
2023-04-15T13:20:34.893Z,9.01
2023-04-15T13:21:34.967Z,9.05
2023-04-15T13:22:34.888Z,9.04
2023-04-15T13:23:34.850Z,9.04
2023-04-15T13:24:34.851Z,9.01
2023-04-15T13:25:34.857Z,8.93
2023-04-15T13:26:34.904Z,8.91
2023-04-15T13:27:34.924Z,8.90
2023-04-15T13:28:35.325Z,8.96
2023-04-15T13:29:34.848Z,8.99
2023-04-15T13:30:34.763Z,9.01
2023-04-15T13:31:34.873Z,8.94
2023-04-15T13:32:34.900Z,8.90
2023-04-15T13:33:34.743Z,8.93
2023-04-15T13:34:34.841Z,8.91
2023-04-15T13:35:34.718Z,8.88
2023-04-15T13:36:34.711Z,8.90
2023-04-15T13:37:34.726Z,8.88
2023-04-15T13:38:34.738Z,8.83
2023-04-15T13:39:34.703Z,8.84
2023-04-15T13:40:34.662Z,8.86
2023-04-15T13:41:34.658Z,8.83
2023-04-15T13:42:34.649Z,8.83
2023-04-15T13:43:34.649Z,8.79
2023-04-15T13:44:34.624Z,8.79
2023-04-15T13:45:34.665Z,8.79
2023-04-15T13:46:34.616Z,8.75
2023-04-15T13:47:34.670Z,8.78
2023-04-15T13:48:34.623Z,8.75
2023-04-15T13:49:34.588Z,8.78
2023-04-15T13:50:34.564Z,8.76
2023-04-15T13:51:34.555Z,8.76
2023-04-15T13:52:34.576Z,8.71
2023-04-15T13:53:38.984Z,8.72
2023-04-15T13:54:37.849Z,8.72
2023-04-15T13:55:34.501Z,8.72
2023-04-15T13:56:34.527Z,8.73
2023-04-15T13:57:34.500Z,8.71
2023-04-15T13:58:34.476Z,8.71
2023-04-15T13:59:34.481Z,8.71
2023-04-15T14:00:34.457Z,8.69
2023-04-15T14:01:34.605Z,8.71
2023-04-15T14:02:34.532Z,8.66
2023-04-15T14:03:34.816Z,8.65
2023-04-15T14:04:34.434Z,8.66
2023-04-15T14:05:34.396Z,8.69
2023-04-15T14:06:34.383Z,8.69
2023-04-15T14:07:34.366Z,8.68
2023-04-15T14:08:34.418Z,8.66
2023-04-15T14:09:35.470Z,8.65
2023-04-15T14:10:34.342Z,8.63
2023-04-15T14:11:34.345Z,8.57
2023-04-15T14:12:34.328Z,8.55
2023-04-15T14:13:34.333Z,8.60
2023-04-15T14:14:34.331Z,8.55
2023-04-15T14:15:34.304Z,8.54
2023-04-15T14:16:34.359Z,8.51
2023-04-15T14:17:34.307Z,8.54
2023-04-15T14:18:34.267Z,8.60
2023-04-15T14:19:34.227Z,8.60
2023-04-15T14:20:34.243Z,8.55
2023-04-15T14:21:34.248Z,8.54
2023-04-15T14:22:34.763Z,8.51
2023-04-15T14:23:34.185Z,8.47
2023-04-15T14:24:34.194Z,8.42
2023-04-15T14:25:34.428Z,8.45
2023-04-15T14:26:34.182Z,8.51